Pride Of Kent — MQCJ2 — position and weather

sailwx.info

Track history (hours):
 
Tides and Currents Weather Stations Pressure Air Temp Water Temp Dewpoint Dewpoint Depression Visibility Wind Speed Wind Dir Waves Ship Positions

Pride Of Kent

Operator: P & O Ferries

Last reported at 2014-Sep-01 20:13 UTC. Time now 2014-Sep-01 21:07 UTC.
Position N 51°07' E 001°20'.

Length 180 m; draft 6 m.

Type: Passenger vessel. MMSI: 232009000.

Date/timePositionNaut miles runAvg speedWind from/ knotsBaromVisibWave heightAir tempDewpointWater temp
2014-Sep-01 20:13N 51°07' E 001°20'913.4
2014-Sep-01 19:34N 51°04' E 001°33'9 4.4
2014-Sep-01 17:30N 50°58' E 001°44'16 8.4
2014-Sep-01 15:34N 51°07' E 001°23'1717.1
2014-Sep-01 14:33N 50°58' E 001°46'2 1.9
2014-Sep-01 13:13N 50°58' E 001°50'1218.7
2014-Sep-01 12:33N 51°01' E 001°31'4 2.2
2014-Sep-01 10:33N 51°05' E 001°33'1413.0
2014-Sep-01 09:31N 50°58' E 001°52'4 3.8
2014-Sep-01 08:32N 50°58' E 001°46'1616.6
2014-Sep-01 07:34N 51°07' E 001°24'3 2.6
2014-Sep-01 06:30N 51°07' E 001°20'1010.8
2014-Sep-01 05:33N 51°02' E 001°34'1211.6
2014-Sep-01 04:33N 50°58' E 001°51'1 1.0
2014-Sep-01 03:34N 50°58' E 001°50'1717.5
2014-Sep-01 02:33N 51°06' E 001°25'3 2.7
2014-Sep-01 01:17N 51°07' E 001°20'3 4.2
2014-Sep-01 00:34N 51°07' E 001°25'1717.3
2014-Aug-31 23:34N 50°58' E 001°49'2 1.5
2014-Aug-31 22:33N 50°58' E 001°51'1413.8
2014-Aug-31 21:33N 51°03' E 001°31'8 6.4
2014-Aug-31 20:17N 51°07' E 001°20'1014.2
2014-Aug-31 19:34N 51°02' E 001°34'8 3.8
2014-Aug-31 17:33N 50°58' E 001°44'17 8.5
2014-Aug-31 15:32N 51°07' E 001°21'1717.9
2014-Aug-31 14:33N 50°58' E 001°45'3 2.5
2014-Aug-31 13:13N 50°58' E 001°50'1219.1
2014-Aug-31 12:33N 51°02' E 001°32'9 6.9
2014-Aug-31 11:18N 51°07' E 001°20'1418.6
2014-Aug-31 10:33N 51°01' E 001°40'8 7.1
2014-Aug-31 09:29N 50°58' E 001°51'6 6.6
2014-Aug-31 08:32N 50°58' E 001°41'11 3.7
2014-Aug-31 05:34N 51°07' E 001°30'1615.6
2014-Aug-31 04:33N 50°58' E 001°51'1 0.5
2014-Aug-31 03:17N 50°58' E 001°50'1419.7
2014-Aug-31 02:33N 51°04' E 001°28'3 1.5
2014-Aug-31 00:33N 51°06' E 001°26'1717.4
2014-Aug-30 23:33N 50°58' E 001°51'0 0.4
2014-Aug-30 22:30N 50°58' E 001°50'1718.3
2014-Aug-30 21:33N 51°06' E 001°25'3 2.7
2014-Aug-30 20:32N 51°07' E 001°21'1818.7
2014-Aug-30 19:33N 50°58' E 001°46'15 0.3
2014-Aug-29 01:33N 51°06' E 001°27'1515.0
2014-Aug-29 00:33N 50°58' E 001°47'4 2.9
2014-Aug-28 23:06N 50°59' E 001°41'1017.4
2014-Aug-28 22:33N 51°03' E 001°27'5 3.6
2014-Aug-28 21:13N 51°07' E 001°22'1117.3
2014-Aug-28 20:33N 51°01' E 001°37'9 8.3
2014-Aug-28 19:28N 50°58' E 001°51'6 6.0
2014-Aug-28 18:28N 50°58' E 001°41'1516.7
2014-Aug-28 17:33N 51°07' E 001°21'1 0.7
2014-Aug-28 16:21N 51°07' E 001°23'1214.6
2014-Aug-28 15:33N 51°02' E 001°39'8 6.0
2014-Aug-28 14:09N 50°58' E 001°51'2113.0
2014-Aug-28 12:31N 51°07' E 001°20'0 0.1
2014-Aug-28 11:19N 51°07' E 001°21'1316.5
2014-Aug-28 10:33N 51°01' E 001°38'9 6.4
2014-Aug-28 09:12N 50°58' E 001°51'1010.4
2014-Aug-28 08:17N 50°59' E 001°36'8 0.4
2014-Aug-27 15:33N 51°05' E 001°29'1613.1
2014-Aug-27 14:22N 50°58' E 001°51'4 4.4
2014-Aug-27 13:21N 50°58' E 001°44'1417.3
2014-Aug-27 12:33N 51°05' E 001°25'3 1.9
2014-Aug-27 11:07N 51°07' E 001°23'1017.2
2014-Aug-27 10:33N 51°02' E 001°35'1110.5
2014-Aug-27 09:33N 50°58' E 001°51'8 6.7
2014-Aug-27 08:22N 50°59' E 001°38'13 6.0
2014-Aug-27 06:13N 51°07' E 001°22'1217.5
2014-Aug-27 05:33N 51°01' E 001°38'5 2.3
2014-Aug-27 03:13N 51°02' E 001°30'6 3.5
2014-Aug-27 01:33N 51°07' E 001°26'1615.4
2014-Aug-27 00:30N 50°58' E 001°48'8 4.2
2014-Aug-26 22:28N 51°01' E 001°35'8 4.0
2014-Aug-26 20:33N 51°06' E 001°26'1716.9
2014-Aug-26 19:33N 50°58' E 001°50'11 5.5
2014-Aug-26 17:32N 51°02' E 001°33'5 2.6
2014-Aug-26 15:34N 51°05' E 001°27'1615.7
2014-Aug-26 14:31N 50°58' E 001°51'17 8.5
2014-Aug-26 12:32N 51°04' E 001°25'5 4.4
2014-Aug-26 11:28N 51°07' E 001°20'1112.5
2014-Aug-26 10:33N 51°02' E 001°36'1010.3
2014-Aug-26 09:33N 50°58' E 001°51'4 4.5
2014-Aug-26 08:34N 50°58' E 001°44'1616.2
2014-Aug-26 07:34N 51°07' E 001°22'1 1.4
2014-Aug-26 06:33N 51°07' E 001°20'1111.4
2014-Aug-26 05:33N 51°02' E 001°36'1010.3
2014-Aug-26 04:33N 50°58' E 001°51'0 0.4
2014-Aug-26 03:33N 50°58' E 001°51'1717.0
2014-Aug-26 02:33N 51°05' E 001°25'4 4.3
2014-Aug-26 01:33N 51°07' E 001°20'8 8.0
2014-Aug-26 00:33N 51°04' E 001°32'1313.0
2014-Aug-25 23:33N 50°58' E 001°50'2 1.5
2014-Aug-25 22:33N 50°58' E 001°48'1717.3
2014-Aug-25 21:33N 51°06' E 001°24'2 1.6
2014-Aug-25 20:33N 51°07' E 001°23'1717.5
2014-Aug-25 19:34N 50°58' E 001°46'3 3.2
2014-Aug-25 18:34N 50°58' E 001°51'1010.2
2014-Aug-25 17:33N 51°01' E 001°35'7 3.5
2014-Aug-25 15:33N 51°07' E 001°29'1615.6
2014-Aug-25 14:33N 50°58' E 001°51'17 8.4
2014-Aug-25 12:28N 51°04' E 001°25'3 2.3
2014-Aug-25 11:03N 51°07' E 001°22'917.1
2014-Aug-25 10:33N 51°03' E 001°34'6 2.9
2014-Aug-25 08:21N 50°58' E 001°40'1316.1
2014-Aug-25 07:34N 51°06' E 001°24'6 3.1
2014-Aug-25 05:33N 51°03' E 001°34'1311.2
2014-Aug-25 04:26N 50°58' E 001°51'5 4.6
2014-Aug-25 03:27N 50°58' E 001°44'1516.9
2014-Aug-25 02:34N 51°06' E 001°24'4 1.9
2014-Aug-25 00:33N 51°06' E 001°30'1413.7
2014-Aug-24 23:33N 50°58' E 001°48'12 5.9
2014-Aug-24 21:33N 51°02' E 001°31'7 4.8
2014-Aug-24 20:04N 51°07' E 001°22'815.8
2014-Aug-24 19:34N 51°03' E 001°33'13 9.8
2014-Aug-24 18:15N 50°58' E 001°52'1911.0
2014-Aug-24 16:34N 51°05' E 001°25'3 3.4
2014-Aug-24 15:33N 51°07' E 001°20'1616.5
2014-Aug-24 14:33N 50°59' E 001°43'8 3.9
2014-Aug-24 12:33N 51°02' E 001°32'7 5.3
2014-Aug-24 11:09N 51°07' E 001°22'1017.2
2014-Aug-24 10:33N 51°01' E 001°36'10 9.5
2014-Aug-24 09:29N 50°58' E 001°51'10 8.0
2014-Aug-24 08:16N 51°00' E 001°36'7 2.7
2014-Aug-24 05:33N 51°05' E 001°27'1616.4
2014-Aug-24 04:33N 50°58' E 001°51'2 1.5
2014-Aug-24 03:32N 50°58' E 001°48'1515.6
2014-Aug-24 02:34N 51°06' E 001°28'5 4.6
2014-Aug-24 01:29N 51°07' E 001°20'5 4.9
2014-Aug-24 00:34N 51°06' E 001°27'1615.8
2014-Aug-23 23:33N 50°58' E 001°49'3 2.7
2014-Aug-23 22:27N 50°58' E 001°44'1416.1
2014-Aug-23 21:33N 51°05' E 001°24'3 2.4
2014-Aug-23 20:28N 51°07' E 001°22'1516.5
2014-Aug-23 19:34N 50°59' E 001°42'1 0.1
2014-Aug-23 03:18N 50°58' E 001°42'1317.5
2014-Aug-23 02:34N 51°05' E 001°25'2 0.9
2014-Aug-23 00:33N 51°05' E 001°27'1514.3
2014-Aug-22 23:32N 50°58' E 001°48'5 3.7
2014-Aug-22 22:10N 50°58' E 001°40'1117.5
2014-Aug-22 21:33N 51°05' E 001°26'4 3.6
2014-Aug-22 20:20N 51°07' E 001°20'  
Track history (hours):
 
Tides and Currents Weather Stations Pressure Air Temp Water Temp Dewpoint Dewpoint Depression Visibility Wind Speed Wind Dir Waves Ship Positions

Pride Of Kent

Operator: P & O Ferries

Last reported at 2014-Sep-01 20:13 UTC. Time now 2014-Sep-01 21:07 UTC.
Position N 51°07' E 001°20'.

Length 180 m; draft 6 m.

Type: Passenger vessel. MMSI: 232009000.

Date/timePositionNaut miles runAvg speedWind from/ knotsBaromVisibWave heightAir tempDewpointWater temp
2014-Sep-01 20:13N 51°07' E 001°20'913.4
2014-Sep-01 19:34N 51°04' E 001°33'9 4.4
2014-Sep-01 17:30N 50°58' E 001°44'16 8.4
2014-Sep-01 15:34N 51°07' E 001°23'1717.1
2014-Sep-01 14:33N 50°58' E 001°46'2 1.9
2014-Sep-01 13:13N 50°58' E 001°50'1218.7
2014-Sep-01 12:33N 51°01' E 001°31'4 2.2
2014-Sep-01 10:33N 51°05' E 001°33'1413.0
2014-Sep-01 09:31N 50°58' E 001°52'4 3.8
2014-Sep-01 08:32N 50°58' E 001°46'1616.6
2014-Sep-01 07:34N 51°07' E 001°24'3 2.6
2014-Sep-01 06:30N 51°07' E 001°20'1010.8
2014-Sep-01 05:33N 51°02' E 001°34'1211.6
2014-Sep-01 04:33N 50°58' E 001°51'1 1.0
2014-Sep-01 03:34N 50°58' E 001°50'1717.5
2014-Sep-01 02:33N 51°06' E 001°25'3 2.7
2014-Sep-01 01:17N 51°07' E 001°20'3 4.2
2014-Sep-01 00:34N 51°07' E 001°25'1717.3
2014-Aug-31 23:34N 50°58' E 001°49'2 1.5
2014-Aug-31 22:33N 50°58' E 001°51'1413.8
2014-Aug-31 21:33N 51°03' E 001°31'8 6.4
2014-Aug-31 20:17N 51°07' E 001°20'1014.2
2014-Aug-31 19:34N 51°02' E 001°34'8 3.8
2014-Aug-31 17:33N 50°58' E 001°44'17 8.5
2014-Aug-31 15:32N 51°07' E 001°21'1717.9
2014-Aug-31 14:33N 50°58' E 001°45'3 2.5
2014-Aug-31 13:13N 50°58' E 001°50'1219.1
2014-Aug-31 12:33N 51°02' E 001°32'9 6.9
2014-Aug-31 11:18N 51°07' E 001°20'1418.6
2014-Aug-31 10:33N 51°01' E 001°40'8 7.1
2014-Aug-31 09:29N 50°58' E 001°51'6 6.6
2014-Aug-31 08:32N 50°58' E 001°41'11 3.7
2014-Aug-31 05:34N 51°07' E 001°30'1615.6
2014-Aug-31 04:33N 50°58' E 001°51'1 0.5
2014-Aug-31 03:17N 50°58' E 001°50'1419.7
2014-Aug-31 02:33N 51°04' E 001°28'3 1.5
2014-Aug-31 00:33N 51°06' E 001°26'1717.4
2014-Aug-30 23:33N 50°58' E 001°51'0 0.4
2014-Aug-30 22:30N 50°58' E 001°50'1718.3
2014-Aug-30 21:33N 51°06' E 001°25'3 2.7
2014-Aug-30 20:32N 51°07' E 001°21'1818.7
2014-Aug-30 19:33N 50°58' E 001°46'15 0.3
2014-Aug-29 01:33N 51°06' E 001°27'1515.0
2014-Aug-29 00:33N 50°58' E 001°47'4 2.9
2014-Aug-28 23:06N 50°59' E 001°41'1017.4
2014-Aug-28 22:33N 51°03' E 001°27'5 3.6
2014-Aug-28 21:13N 51°07' E 001°22'1117.3
2014-Aug-28 20:33N 51°01' E 001°37'9 8.3
2014-Aug-28 19:28N 50°58' E 001°51'6 6.0
2014-Aug-28 18:28N 50°58' E 001°41'1516.7
2014-Aug-28 17:33N 51°07' E 001°21'1 0.7
2014-Aug-28 16:21N 51°07' E 001°23'1214.6
2014-Aug-28 15:33N 51°02' E 001°39'8 6.0
2014-Aug-28 14:09N 50°58' E 001°51'2113.0
2014-Aug-28 12:31N 51°07' E 001°20'0 0.1
2014-Aug-28 11:19N 51°07' E 001°21'1316.5
2014-Aug-28 10:33N 51°01' E 001°38'9 6.4
2014-Aug-28 09:12N 50°58' E 001°51'1010.4
2014-Aug-28 08:17N 50°59' E 001°36'8 0.4
2014-Aug-27 15:33N 51°05' E 001°29'1613.1
2014-Aug-27 14:22N 50°58' E 001°51'4 4.4
2014-Aug-27 13:21N 50°58' E 001°44'1417.3
2014-Aug-27 12:33N 51°05' E 001°25'3 1.9
2014-Aug-27 11:07N 51°07' E 001°23'1017.2
2014-Aug-27 10:33N 51°02' E 001°35'1110.5
2014-Aug-27 09:33N 50°58' E 001°51'8 6.7
2014-Aug-27 08:22N 50°59' E 001°38'13 6.0
2014-Aug-27 06:13N 51°07' E 001°22'1217.5
2014-Aug-27 05:33N 51°01' E 001°38'5 2.3
2014-Aug-27 03:13N 51°02' E 001°30'6 3.5
2014-Aug-27 01:33N 51°07' E 001°26'1615.4
2014-Aug-27 00:30N 50°58' E 001°48'8 4.2
2014-Aug-26 22:28N 51°01' E 001°35'8 4.0
2014-Aug-26 20:33N 51°06' E 001°26'1716.9
2014-Aug-26 19:33N 50°58' E 001°50'11 5.5
2014-Aug-26 17:32N 51°02' E 001°33'5 2.6
2014-Aug-26 15:34N 51°05' E 001°27'1615.7
2014-Aug-26 14:31N 50°58' E 001°51'17 8.5
2014-Aug-26 12:32N 51°04' E 001°25'5 4.4
2014-Aug-26 11:28N 51°07' E 001°20'1112.5
2014-Aug-26 10:33N 51°02' E 001°36'1010.3
2014-Aug-26 09:33N 50°58' E 001°51'4 4.5
2014-Aug-26 08:34N 50°58' E 001°44'1616.2
2014-Aug-26 07:34N 51°07' E 001°22'1 1.4
2014-Aug-26 06:33N 51°07' E 001°20'1111.4
2014-Aug-26 05:33N 51°02' E 001°36'1010.3
2014-Aug-26 04:33N 50°58' E 001°51'0 0.4
2014-Aug-26 03:33N 50°58' E 001°51'1717.0
2014-Aug-26 02:33N 51°05' E 001°25'4 4.3
2014-Aug-26 01:33N 51°07' E 001°20'8 8.0
2014-Aug-26 00:33N 51°04' E 001°32'1313.0
2014-Aug-25 23:33N 50°58' E 001°50'2 1.5
2014-Aug-25 22:33N 50°58' E 001°48'1717.3
2014-Aug-25 21:33N 51°06' E 001°24'2 1.6
2014-Aug-25 20:33N 51°07' E 001°23'1717.5
2014-Aug-25 19:34N 50°58' E 001°46'3 3.2
2014-Aug-25 18:34N 50°58' E 001°51'1010.2
2014-Aug-25 17:33N 51°01' E 001°35'7 3.5
2014-Aug-25 15:33N 51°07' E 001°29'1615.6
2014-Aug-25 14:33N 50°58' E 001°51'17 8.4
2014-Aug-25 12:28N 51°04' E 001°25'3 2.3
2014-Aug-25 11:03N 51°07' E 001°22'917.1
2014-Aug-25 10:33N 51°03' E 001°34'6 2.9
2014-Aug-25 08:21N 50°58' E 001°40'1316.1
2014-Aug-25 07:34N 51°06' E 001°24'6 3.1
2014-Aug-25 05:33N 51°03' E 001°34'1311.2
2014-Aug-25 04:26N 50°58' E 001°51'5 4.6
2014-Aug-25 03:27N 50°58' E 001°44'1516.9
2014-Aug-25 02:34N 51°06' E 001°24'4 1.9
2014-Aug-25 00:33N 51°06' E 001°30'1413.7
2014-Aug-24 23:33N 50°58' E 001°48'12 5.9
2014-Aug-24 21:33N 51°02' E 001°31'7 4.8
2014-Aug-24 20:04N 51°07' E 001°22'815.8
2014-Aug-24 19:34N 51°03' E 001°33'13 9.8
2014-Aug-24 18:15N 50°58' E 001°52'1911.0
2014-Aug-24 16:34N 51°05' E 001°25'3 3.4
2014-Aug-24 15:33N 51°07' E 001°20'1616.5
2014-Aug-24 14:33N 50°59' E 001°43'8 3.9
2014-Aug-24 12:33N 51°02' E 001°32'7 5.3
2014-Aug-24 11:09N 51°07' E 001°22'1017.2
2014-Aug-24 10:33N 51°01' E 001°36'10 9.5
2014-Aug-24 09:29N 50°58' E 001°51'10 8.0
2014-Aug-24 08:16N 51°00' E 001°36'7 2.7
2014-Aug-24 05:33N 51°05' E 001°27'1616.4
2014-Aug-24 04:33N 50°58' E 001°51'2 1.5
2014-Aug-24 03:32N 50°58' E 001°48'1515.6
2014-Aug-24 02:34N 51°06' E 001°28'5 4.6
2014-Aug-24 01:29N 51°07' E 001°20'5 4.9
2014-Aug-24 00:34N 51°06' E 001°27'1615.8
2014-Aug-23 23:33N 50°58' E 001°49'3 2.7
2014-Aug-23 22:27N 50°58' E 001°44'1416.1
2014-Aug-23 21:33N 51°05' E 001°24'3 2.4
2014-Aug-23 20:28N 51°07' E 001°22'1516.5
2014-Aug-23 19:34N 50°59' E 001°42'1 0.1
2014-Aug-23 03:18N 50°58' E 001°42'1317.5
2014-Aug-23 02:34N 51°05' E 001°25'2 0.9
2014-Aug-23 00:33N 51°05' E 001°27'1514.3
2014-Aug-22 23:32N 50°58' E 001°48'5 3.7
2014-Aug-22 22:10N 50°58' E 001°40'1117.5
2014-Aug-22 21:33N 51°05' E 001°26'4 3.6
2014-Aug-22 20:20N 51°07' E 001°20'  

Dump ship's entire track history